createdAt,value
2023-02-22T00:00:23.492Z,936.58
2023-02-22T00:01:23.506Z,936.61
2023-02-22T00:02:23.554Z,936.56
2023-02-22T00:03:23.610Z,936.59
2023-02-22T00:04:23.554Z,936.59
2023-02-22T00:05:23.563Z,936.63
2023-02-22T00:06:23.585Z,936.67
2023-02-22T00:07:23.595Z,936.70
2023-02-22T00:08:23.612Z,936.68
2023-02-22T00:09:23.630Z,936.74
2023-02-22T00:10:23.652Z,936.71
2023-02-22T00:11:23.665Z,936.70
2023-02-22T00:12:23.684Z,936.74
2023-02-22T00:13:23.705Z,936.72
2023-02-22T00:14:23.711Z,936.74
2023-02-22T00:15:23.724Z,936.75
2023-02-22T00:16:23.824Z,936.70
2023-02-22T00:17:23.755Z,936.70
2023-02-22T00:18:23.777Z,936.70
2023-02-22T00:19:23.811Z,936.69
2023-02-22T00:20:23.819Z,936.71
2023-02-22T00:21:23.828Z,936.71
2023-02-22T00:22:23.833Z,936.71
2023-02-22T00:23:23.852Z,936.73
2023-02-22T00:24:23.896Z,936.75
2023-02-22T00:25:23.892Z,936.78
2023-02-22T00:26:23.904Z,936.79
2023-02-22T00:27:23.919Z,936.78
2023-02-22T00:28:23.936Z,936.80
2023-02-22T00:29:23.953Z,936.78
2023-02-22T00:30:24.045Z,936.79
2023-02-22T00:31:24.004Z,936.78
2023-02-22T00:32:24.045Z,936.79
2023-02-22T00:33:24.010Z,936.81
2023-02-22T00:34:24.033Z,936.76
2023-02-22T00:35:24.070Z,936.77
2023-02-22T00:36:24.067Z,936.80
2023-02-22T00:37:24.077Z,936.78
2023-02-22T00:38:24.087Z,936.76
2023-02-22T00:39:24.109Z,936.76
2023-02-22T00:40:24.124Z,936.79
2023-02-22T00:41:24.195Z,936.76
2023-02-22T00:42:24.148Z,936.79
2023-02-22T00:43:24.209Z,936.77
2023-02-22T00:44:24.186Z,936.77
2023-02-22T00:45:24.204Z,936.75
2023-02-22T00:46:24.220Z,936.77
2023-02-22T00:47:24.235Z,936.73
2023-02-22T00:48:24.251Z,936.76
2023-02-22T00:49:24.266Z,936.75
2023-02-22T00:50:24.276Z,936.78
2023-02-22T00:51:24.317Z,936.74
2023-02-22T00:52:24.314Z,936.71
2023-02-22T00:53:24.321Z,936.72
2023-02-22T00:54:24.344Z,936.70
2023-02-22T00:55:24.363Z,936.69
2023-02-22T00:56:24.394Z,936.68
2023-02-22T00:57:24.386Z,936.69
2023-02-22T00:58:24.403Z,936.67
2023-02-22T00:59:24.416Z,936.69
2023-02-22T01:00:24.435Z,936.72
2023-02-22T01:01:24.608Z,936.70
2023-02-22T01:02:24.535Z,936.67
2023-02-22T01:03:24.485Z,936.67
2023-02-22T01:04:24.501Z,936.67
2023-02-22T01:05:24.519Z,936.67
2023-02-22T01:06:24.533Z,936.68
2023-02-22T01:07:24.571Z,936.71
2023-02-22T01:08:24.558Z,936.71
2023-02-22T01:09:24.582Z,936.67
2023-02-22T01:10:24.594Z,936.69
2023-02-22T01:11:24.605Z,936.69
2023-02-22T01:12:24.620Z,936.70
2023-02-22T01:13:24.645Z,936.69
2023-02-22T01:14:24.658Z,936.66
2023-02-22T01:15:24.673Z,936.69
2023-02-22T01:16:24.743Z,936.63
2023-02-22T01:17:24.706Z,936.66
2023-02-22T01:18:24.713Z,936.63
2023-02-22T01:19:24.729Z,936.61
2023-02-22T01:20:24.745Z,936.55
2023-02-22T01:21:24.770Z,936.54
2023-02-22T01:22:24.784Z,936.51
2023-02-22T01:23:24.813Z,936.49
2023-02-22T01:24:24.808Z,936.47
2023-02-22T01:25:24.835Z,936.47
2023-02-22T01:26:24.839Z,936.47
2023-02-22T01:27:24.856Z,936.44
2023-02-22T01:28:24.878Z,936.45
2023-02-22T01:29:24.892Z,936.46
2023-02-22T01:30:24.929Z,936.46
2023-02-22T01:31:25.042Z,936.46
2023-02-22T01:32:24.949Z,936.51
2023-02-22T01:33:24.953Z,936.48
2023-02-22T01:34:24.964Z,936.47
2023-02-22T01:35:24.995Z,936.46
2023-02-22T01:36:25.003Z,936.48
2023-02-22T01:37:25.019Z,936.48
2023-02-22T01:38:25.033Z,936.48
2023-02-22T01:39:25.082Z,936.48
2023-02-22T01:40:25.072Z,936.46
2023-02-22T01:41:25.071Z,936.41
2023-02-22T01:42:25.087Z,936.41
2023-02-22T01:43:25.115Z,936.40
2023-02-22T01:44:25.126Z,936.42
2023-02-22T01:45:25.133Z,936.34
2023-02-22T01:46:25.256Z,936.37
2023-02-22T01:47:25.172Z,936.35
2023-02-22T01:48:25.191Z,936.34
2023-02-22T01:49:25.202Z,936.32
2023-02-22T01:50:25.221Z,936.33
2023-02-22T01:51:25.227Z,936.27
2023-02-22T01:52:25.250Z,936.29
2023-02-22T01:53:25.267Z,936.29
2023-02-22T01:54:25.280Z,936.32
2023-02-22T01:55:25.322Z,936.31
2023-02-22T01:56:25.345Z,936.32
2023-02-22T01:57:25.328Z,936.29
2023-02-22T01:58:25.342Z,936.28
2023-02-22T01:59:25.362Z,936.27
2023-02-22T02:00:25.373Z,936.24
2023-02-22T02:01:25.403Z,936.24
2023-02-22T02:02:25.397Z,936.23
2023-02-22T02:03:25.420Z,936.19
2023-02-22T02:04:25.703Z,936.22
2023-02-22T02:05:25.495Z,936.23
2023-02-22T02:06:25.459Z,936.23
2023-02-22T02:07:25.483Z,936.22
2023-02-22T02:08:25.493Z,936.20
2023-02-22T02:09:25.512Z,936.23
2023-02-22T02:10:25.529Z,936.17
2023-02-22T02:11:25.682Z,936.19
2023-02-22T02:12:25.554Z,936.22
2023-02-22T02:13:25.571Z,936.21
2023-02-22T02:14:25.593Z,936.18
2023-02-22T02:15:25.614Z,936.22
2023-02-22T02:16:25.689Z,936.21
2023-02-22T02:17:25.633Z,936.20
2023-02-22T02:18:25.657Z,936.23
2023-02-22T02:19:25.676Z,936.19
2023-02-22T02:20:25.687Z,936.15
2023-02-22T02:21:25.704Z,936.16
2023-02-22T02:22:25.720Z,936.11
2023-02-22T02:23:25.727Z,936.11
2023-02-22T02:24:25.752Z,936.13
2023-02-22T02:25:25.767Z,936.11
2023-02-22T02:26:25.786Z,936.10
2023-02-22T02:27:25.816Z,936.12
2023-02-22T02:28:25.808Z,936.12
2023-02-22T02:29:25.824Z,936.13
2023-02-22T02:30:25.914Z,936.10
2023-02-22T02:31:26.005Z,936.12
2023-02-22T02:32:25.946Z,936.15
2023-02-22T02:33:25.888Z,936.13
2023-02-22T02:34:25.908Z,936.13
2023-02-22T02:35:25.916Z,936.17
2023-02-22T02:36:25.932Z,936.17
2023-02-22T02:37:25.954Z,936.17
2023-02-22T02:38:25.992Z,936.19
2023-02-22T02:39:25.986Z,936.19
2023-02-22T02:40:26.089Z,936.17
2023-02-22T02:41:26.017Z,936.17
2023-02-22T02:42:26.032Z,936.22
2023-02-22T02:43:26.062Z,936.16
2023-02-22T02:44:26.058Z,936.22
2023-02-22T02:45:26.072Z,936.14
2023-02-22T02:46:26.096Z,936.16
2023-02-22T02:47:26.166Z,936.15
2023-02-22T02:48:26.119Z,936.10
2023-02-22T02:49:26.152Z,936.10
2023-02-22T02:50:26.160Z,936.09
2023-02-22T02:51:26.179Z,936.14
2023-02-22T02:52:26.189Z,936.08
2023-02-22T02:53:26.205Z,936.10
2023-02-22T02:54:26.222Z,936.08
2023-02-22T02:55:26.229Z,936.10
2023-02-22T02:56:26.251Z,936.09
2023-02-22T02:57:26.261Z,936.10
2023-02-22T02:58:26.275Z,936.12
2023-02-22T02:59:26.328Z,936.11
2023-02-22T03:00:26.307Z,936.13
2023-02-22T03:01:26.341Z,936.10
2023-02-22T03:02:26.403Z,936.15
2023-02-22T03:03:26.353Z,936.15
2023-02-22T03:04:26.369Z,936.16
2023-02-22T03:05:26.384Z,936.18
2023-02-22T03:06:26.406Z,936.18
2023-02-22T03:07:26.520Z,936.17
2023-02-22T03:08:26.432Z,936.18
2023-02-22T03:09:26.448Z,936.12
2023-02-22T03:10:26.461Z,936.09
2023-02-22T03:11:26.478Z,936.10
2023-02-22T03:12:26.493Z,936.06
2023-02-22T03:13:26.509Z,936.10
2023-02-22T03:14:26.543Z,936.10
2023-02-22T03:15:26.557Z,936.12
2023-02-22T03:16:26.626Z,936.14
2023-02-22T03:17:26.577Z,936.13
2023-02-22T03:18:26.595Z,936.15
2023-02-22T03:19:26.605Z,936.11
2023-02-22T03:20:26.628Z,936.07
2023-02-22T03:21:26.633Z,936.10
2023-02-22T03:22:26.671Z,936.06
2023-02-22T03:23:26.678Z,936.00
2023-02-22T03:24:26.694Z,936.02
2023-02-22T03:25:26.697Z,936.02
2023-02-22T03:26:26.746Z,935.98
2023-02-22T03:27:26.735Z,935.96
2023-02-22T03:28:26.746Z,935.97
2023-02-22T03:29:26.766Z,935.97
2023-02-22T03:30:26.805Z,935.94
2023-02-22T03:31:26.840Z,935.94
2023-02-22T03:32:26.812Z,935.94
2023-02-22T03:33:26.822Z,935.91
2023-02-22T03:34:26.838Z,935.90
2023-02-22T03:35:26.858Z,935.89
2023-02-22T03:36:26.888Z,935.87
2023-02-22T03:37:26.899Z,935.90
2023-02-22T03:38:26.920Z,935.87
2023-02-22T03:39:26.926Z,935.87
2023-02-22T03:40:26.951Z,935.84
2023-02-22T03:41:26.950Z,935.83
2023-02-22T03:42:26.969Z,935.83
2023-02-22T03:43:26.984Z,935.79
2023-02-22T03:44:26.994Z,935.81
2023-02-22T03:45:27.015Z,935.82
2023-02-22T03:46:27.048Z,935.84
2023-02-22T03:47:27.068Z,935.83
2023-02-22T03:48:27.064Z,935.83
2023-02-22T03:49:27.071Z,935.87
2023-02-22T03:50:27.083Z,935.89
2023-02-22T03:51:27.109Z,935.88
2023-02-22T03:52:27.126Z,935.89
2023-02-22T03:53:27.140Z,935.87
2023-02-22T03:54:27.156Z,935.85
2023-02-22T03:55:27.170Z,935.83
2023-02-22T03:56:27.193Z,935.82
2023-02-22T03:57:27.208Z,935.79
2023-02-22T03:58:27.208Z,935.80
2023-02-22T03:59:27.236Z,935.77
2023-02-22T04:00:27.247Z,935.81
2023-02-22T04:01:27.270Z,935.76
2023-02-22T04:02:27.270Z,935.81
2023-02-22T04:03:27.305Z,935.80
2023-02-22T04:04:27.367Z,935.79
2023-02-22T04:05:27.330Z,935.79
2023-02-22T04:06:27.338Z,935.79
2023-02-22T04:07:27.355Z,935.77
2023-02-22T04:08:27.364Z,935.74
2023-02-22T04:09:27.379Z,935.76
2023-02-22T04:10:27.402Z,935.74
2023-02-22T04:11:27.416Z,935.73
2023-02-22T04:12:27.425Z,935.70
2023-02-22T04:13:27.455Z,935.68
2023-02-22T04:14:29.490Z,935.63
2023-02-22T04:15:27.480Z,935.61
2023-02-22T04:16:27.505Z,935.61
2023-02-22T04:17:27.509Z,935.60
2023-02-22T04:18:27.526Z,935.57
2023-02-22T04:19:27.564Z,935.54
2023-02-22T04:20:27.564Z,935.56
2023-02-22T04:21:27.582Z,935.60
2023-02-22T04:22:27.604Z,935.58
2023-02-22T04:23:27.597Z,935.57
2023-02-22T04:24:30.246Z,935.58
2023-02-22T04:25:27.626Z,935.57
2023-02-22T04:26:27.650Z,935.58
2023-02-22T04:27:27.663Z,935.54
2023-02-22T04:28:27.677Z,935.49
2023-02-22T04:29:27.695Z,935.51
2023-02-22T04:30:27.747Z,935.48
2023-02-22T04:31:27.947Z,935.52
2023-02-22T04:32:27.734Z,935.52
2023-02-22T04:33:27.757Z,935.50
2023-02-22T04:34:27.764Z,935.52
2023-02-22T04:35:27.805Z,935.50
2023-02-22T04:36:27.804Z,935.47
2023-02-22T04:37:27.818Z,935.50
2023-02-22T04:38:27.828Z,935.47
2023-02-22T04:39:27.883Z,935.42
2023-02-22T04:40:27.864Z,935.42
2023-02-22T04:41:27.878Z,935.42
2023-02-22T04:42:27.894Z,935.37
2023-02-22T04:43:27.911Z,935.40
2023-02-22T04:44:27.928Z,935.40
2023-02-22T04:45:27.947Z,935.38
2023-02-22T04:46:27.970Z,935.37
2023-02-22T04:47:27.982Z,935.36
2023-02-22T04:48:27.981Z,935.32
2023-02-22T04:49:28.005Z,935.37
2023-02-22T04:50:28.011Z,935.32
2023-02-22T04:51:28.058Z,935.33
2023-02-22T04:52:28.041Z,935.30
2023-02-22T04:53:28.066Z,935.33
2023-02-22T04:54:28.072Z,935.28
2023-02-22T04:55:28.091Z,935.28
2023-02-22T04:56:28.113Z,935.24
2023-02-22T04:57:28.737Z,935.23
2023-02-22T04:58:28.136Z,935.22
2023-02-22T04:59:28.159Z,935.17
2023-02-22T05:00:28.173Z,935.15
2023-02-22T05:01:28.188Z,935.18
2023-02-22T05:02:28.273Z,935.17
2023-02-22T05:03:28.217Z,935.18
2023-02-22T05:04:28.252Z,935.21
2023-02-22T05:05:28.270Z,935.16
2023-02-22T05:06:28.265Z,935.17
2023-02-22T05:07:28.305Z,935.12
2023-02-22T05:08:28.294Z,935.08
2023-02-22T05:09:28.305Z,935.07
2023-02-22T05:10:28.325Z,935.09
2023-02-22T05:11:28.340Z,935.06
2023-02-22T05:12:28.359Z,935.05
2023-02-22T05:13:28.368Z,935.05
2023-02-22T05:14:28.389Z,935.05
2023-02-22T05:15:28.397Z,935.03
2023-02-22T05:16:28.417Z,935.03
2023-02-22T05:17:28.424Z,935.02
2023-02-22T05:18:28.447Z,934.97
2023-02-22T05:19:28.457Z,935.00
2023-02-22T05:20:28.482Z,935.00
2023-02-22T05:21:28.493Z,934.96
2023-02-22T05:22:28.508Z,934.97
2023-02-22T05:23:28.538Z,935.00
2023-02-22T05:24:28.550Z,934.94
2023-02-22T05:25:28.548Z,934.96
2023-02-22T05:26:28.574Z,934.98
2023-02-22T05:27:28.593Z,935.00
2023-02-22T05:28:28.602Z,934.98
2023-02-22T05:29:28.616Z,935.03
2023-02-22T05:30:28.745Z,935.04
2023-02-22T05:31:28.786Z,935.02
2023-02-22T05:32:28.657Z,935.05
2023-02-22T05:33:28.673Z,935.03
2023-02-22T05:34:28.699Z,935.01
2023-02-22T05:35:28.703Z,935.06
2023-02-22T05:36:28.724Z,934.99
2023-02-22T05:37:28.769Z,935.01
2023-02-22T05:38:28.768Z,935.01
2023-02-22T05:39:28.817Z,934.99
2023-02-22T05:40:28.802Z,934.98
2023-02-22T05:41:28.802Z,934.98
2023-02-22T05:42:28.819Z,934.98
2023-02-22T05:43:28.829Z,934.96
2023-02-22T05:44:28.847Z,934.97
2023-02-22T05:45:28.861Z,934.97
2023-02-22T05:46:28.939Z,934.95
2023-02-22T05:47:28.894Z,934.93
2023-02-22T05:48:28.902Z,934.97
2023-02-22T05:49:28.925Z,934.96
2023-02-22T05:50:28.939Z,934.98
2023-02-22T05:51:28.949Z,934.99
2023-02-22T05:52:28.974Z,935.03
2023-02-22T05:53:28.979Z,935.04
2023-02-22T05:54:29.005Z,934.98
2023-02-22T05:55:29.071Z,935.01
2023-02-22T05:56:29.040Z,935.00
2023-02-22T05:57:29.046Z,934.99
2023-02-22T05:58:29.060Z,934.99
2023-02-22T05:59:29.068Z,934.94
2023-02-22T06:00:29.121Z,934.93
2023-02-22T06:01:29.107Z,934.92
2023-02-22T06:02:29.122Z,934.91
2023-02-22T06:03:29.129Z,934.94
2023-02-22T06:04:29.144Z,934.92
2023-02-22T06:05:29.239Z,934.90
2023-02-22T06:06:29.173Z,934.93
2023-02-22T06:07:29.202Z,934.93
2023-02-22T06:08:29.212Z,934.92
2023-02-22T06:09:29.220Z,934.95
2023-02-22T06:10:29.247Z,934.98
2023-02-22T06:11:29.281Z,934.97
2023-02-22T06:12:29.266Z,934.98
2023-02-22T06:13:29.290Z,935.02
2023-02-22T06:14:29.297Z,935.01
2023-02-22T06:15:29.334Z,935.06
2023-02-22T06:16:29.377Z,935.03
2023-02-22T06:17:29.364Z,935.08
2023-02-22T06:18:29.378Z,935.10
2023-02-22T06:19:29.390Z,935.10
2023-02-22T06:20:29.413Z,935.16
2023-02-22T06:21:29.412Z,935.12
2023-02-22T06:22:29.423Z,935.18
2023-02-22T06:23:29.434Z,935.17
2023-02-22T06:24:29.456Z,935.16
2023-02-22T06:25:29.463Z,935.16
2023-02-22T06:26:29.485Z,935.15
2023-02-22T06:27:29.511Z,935.13
2023-02-22T06:28:29.520Z,935.15
2023-02-22T06:29:29.534Z,935.19
2023-02-22T06:30:29.611Z,935.20
2023-02-22T06:31:29.598Z,935.23
2023-02-22T06:32:29.626Z,935.25
2023-02-22T06:33:29.699Z,935.25
2023-02-22T06:34:29.601Z,935.31
2023-02-22T06:35:29.615Z,935.28
2023-02-22T06:36:29.629Z,935.35
2023-02-22T06:37:29.653Z,935.36
2023-02-22T06:38:29.667Z,935.39
2023-02-22T06:39:29.679Z,935.38
2023-02-22T06:40:29.827Z,935.34
2023-02-22T06:41:29.716Z,935.36
2023-02-22T06:42:29.742Z,935.36
2023-02-22T06:43:29.768Z,935.40
2023-02-22T06:44:29.758Z,935.34
2023-02-22T06:45:29.862Z,935.39
2023-02-22T06:46:29.871Z,935.39
2023-02-22T06:47:29.799Z,935.39
2023-02-22T06:48:29.839Z,935.34
2023-02-22T06:49:29.837Z,935.34
2023-02-22T06:50:29.898Z,935.34
2023-02-22T06:51:29.870Z,935.30
2023-02-22T06:52:29.880Z,935.31
2023-02-22T06:53:29.892Z,935.29
2023-02-22T06:54:29.919Z,935.27
2023-02-22T06:55:29.953Z,935.27
2023-02-22T06:56:29.950Z,935.28
2023-02-22T06:57:29.973Z,935.30
2023-02-22T06:58:29.986Z,935.32
2023-02-22T06:59:30.031Z,935.29
2023-02-22T07:00:30.211Z,935.28
2023-02-22T07:01:30.010Z,935.28
2023-02-22T07:02:30.025Z,935.30
2023-02-22T07:03:30.101Z,935.27
2023-02-22T07:04:30.064Z,935.33
2023-02-22T07:05:30.090Z,935.30
2023-02-22T07:06:30.095Z,935.31
2023-02-22T07:07:30.128Z,935.31
2023-02-22T07:08:30.120Z,935.35
2023-02-22T07:09:30.137Z,935.32
2023-02-22T07:10:30.151Z,935.35
2023-02-22T07:11:30.172Z,935.39
2023-02-22T07:12:30.180Z,935.37
2023-02-22T07:13:30.206Z,935.44
2023-02-22T07:14:30.212Z,935.45
2023-02-22T07:15:30.264Z,935.47
2023-02-22T07:16:30.267Z,935.47
2023-02-22T07:17:30.258Z,935.53
2023-02-22T07:18:30.986Z,935.56
2023-02-22T07:19:30.289Z,935.54
2023-02-22T07:20:30.312Z,935.56
2023-02-22T07:21:30.329Z,935.60
2023-02-22T07:22:30.335Z,935.59
2023-02-22T07:23:30.354Z,935.63
2023-02-22T07:24:30.377Z,935.63
2023-02-22T07:25:30.383Z,935.61
2023-02-22T07:26:30.418Z,935.64
2023-02-22T07:27:30.435Z,935.64
2023-02-22T07:28:30.445Z,935.67
2023-02-22T07:29:30.464Z,935.67
2023-02-22T07:30:30.641Z,935.69
2023-02-22T07:31:30.499Z,935.70
2023-02-22T07:32:30.588Z,935.70
2023-02-22T07:33:30.503Z,935.71
2023-02-22T07:34:30.528Z,935.71
2023-02-22T07:35:30.556Z,935.76
2023-02-22T07:36:30.555Z,935.76
2023-02-22T07:37:30.571Z,935.76
2023-02-22T07:38:30.582Z,935.77
2023-02-22T07:39:30.594Z,935.75
2023-02-22T07:40:30.618Z,935.78
2023-02-22T07:41:30.632Z,935.77
2023-02-22T07:42:30.649Z,935.81
2023-02-22T07:43:30.654Z,935.81
2023-02-22T07:44:30.690Z,935.81
2023-02-22T07:45:30.713Z,935.85
2023-02-22T07:46:30.723Z,935.85
2023-02-22T07:47:30.770Z,935.86
2023-02-22T07:48:30.756Z,935.88
2023-02-22T07:49:30.769Z,935.90
2023-02-22T07:50:30.778Z,935.89
2023-02-22T07:51:30.784Z,935.85
2023-02-22T07:52:30.794Z,935.86
2023-02-22T07:53:30.816Z,935.83
2023-02-22T07:54:30.821Z,935.87
2023-02-22T07:55:30.845Z,935.84
2023-02-22T07:56:30.859Z,935.85
2023-02-22T07:57:30.867Z,935.88
2023-02-22T07:58:30.892Z,935.88
2023-02-22T07:59:30.906Z,935.87
2023-02-22T08:00:30.917Z,935.87
2023-02-22T08:01:30.928Z,935.90
2023-02-22T08:02:31.017Z,935.90
2023-02-22T08:03:31.039Z,935.91
2023-02-22T08:04:30.978Z,935.91
2023-02-22T08:05:30.994Z,935.95
2023-02-22T08:06:31.006Z,935.92
2023-02-22T08:07:31.027Z,935.94
2023-02-22T08:08:31.041Z,935.94
2023-02-22T08:09:31.057Z,935.92
2023-02-22T08:10:31.074Z,935.92
2023-02-22T08:11:31.085Z,935.91
2023-02-22T08:12:31.113Z,935.91
2023-02-22T08:13:31.118Z,935.93
2023-02-22T08:14:31.124Z,935.97
2023-02-22T08:15:31.140Z,935.97
2023-02-22T08:16:31.163Z,935.95
2023-02-22T08:17:31.175Z,935.96
2023-02-22T08:18:31.195Z,935.95
2023-02-22T08:19:31.259Z,935.97
2023-02-22T08:20:31.217Z,936.01
2023-02-22T08:21:31.232Z,936.04
2023-02-22T08:22:31.245Z,936.05
2023-02-22T08:23:31.261Z,936.07
2023-02-22T08:24:31.284Z,936.12
2023-02-22T08:25:31.300Z,936.13
2023-02-22T08:26:31.318Z,936.15
2023-02-22T08:27:31.340Z,936.17
2023-02-22T08:28:31.336Z,936.19
2023-02-22T08:29:31.361Z,936.22
2023-02-22T08:30:31.494Z,936.25
2023-02-22T08:31:31.405Z,936.24
2023-02-22T08:32:31.596Z,936.26
2023-02-22T08:33:31.437Z,936.22
2023-02-22T08:34:31.427Z,936.29
2023-02-22T08:35:31.467Z,936.25
2023-02-22T08:36:31.466Z,936.29
2023-02-22T08:37:31.481Z,936.30
2023-02-22T08:38:31.494Z,936.36
2023-02-22T08:39:31.503Z,936.33
2023-02-22T08:40:31.536Z,936.36
2023-02-22T08:41:31.534Z,936.36
2023-02-22T08:42:31.557Z,936.36
2023-02-22T08:43:31.572Z,936.38
2023-02-22T08:44:31.583Z,936.40
2023-02-22T08:45:31.691Z,936.39
2023-02-22T08:46:31.615Z,936.40
2023-02-22T08:47:31.639Z,936.40
2023-02-22T08:48:31.650Z,936.39
2023-02-22T08:49:31.661Z,936.42
2023-02-22T08:50:31.673Z,936.41
2023-02-22T08:51:31.713Z,936.39
2023-02-22T08:52:31.699Z,936.38
2023-02-22T08:53:31.714Z,936.43
2023-02-22T08:54:31.732Z,936.41
2023-02-22T08:55:31.761Z,936.42
2023-02-22T08:56:31.762Z,936.38
2023-02-22T08:57:31.795Z,936.41
2023-02-22T08:58:31.792Z,936.44
2023-02-22T08:59:31.807Z,936.48
2023-02-22T09:00:31.824Z,936.48
2023-02-22T09:01:33.379Z,936.49
2023-02-22T09:02:31.852Z,936.51
2023-02-22T09:03:31.879Z,936.50
2023-02-22T09:04:31.880Z,936.46
2023-02-22T09:05:32.026Z,936.50
2023-02-22T09:06:31.911Z,936.50
2023-02-22T09:07:31.954Z,936.50
2023-02-22T09:08:31.935Z,936.53
2023-02-22T09:09:31.950Z,936.54
2023-02-22T09:10:31.969Z,936.57
2023-02-22T09:11:31.988Z,936.56
2023-02-22T09:12:32.004Z,936.60
2023-02-22T09:13:32.018Z,936.61
2023-02-22T09:14:32.035Z,936.64
2023-02-22T09:15:32.063Z,936.63
2023-02-22T09:16:32.091Z,936.73
2023-02-22T09:17:32.077Z,936.73
2023-02-22T09:18:43.456Z,936.75
2023-02-22T09:19:32.100Z,936.77
2023-02-22T09:20:32.115Z,936.79
2023-02-22T09:21:32.139Z,936.80
2023-02-22T09:22:32.145Z,936.78
2023-02-22T09:23:32.235Z,936.76
2023-02-22T09:24:32.180Z,936.76
2023-02-22T09:25:32.203Z,936.75
2023-02-22T09:26:32.220Z,936.74
2023-02-22T09:27:32.234Z,936.75
2023-02-22T09:28:32.246Z,936.77
2023-02-22T09:29:32.259Z,936.81
2023-02-22T09:30:32.567Z,936.79
2023-02-22T09:31:32.351Z,936.81
2023-02-22T09:32:32.492Z,936.83
2023-02-22T09:33:32.331Z,936.79
2023-02-22T09:34:32.326Z,936.79
2023-02-22T09:35:32.358Z,936.84
2023-02-22T09:36:32.370Z,936.81
2023-02-22T09:37:32.374Z,936.83
2023-02-22T09:38:32.388Z,936.79
2023-02-22T09:39:32.518Z,936.83
2023-02-22T09:40:32.440Z,936.83
2023-02-22T09:41:34.522Z,936.88
2023-02-22T09:42:32.455Z,936.85
2023-02-22T09:43:32.462Z,936.87
2023-02-22T09:44:32.476Z,936.86
2023-02-22T09:45:32.608Z,936.91
2023-02-22T09:46:32.506Z,936.89
2023-02-22T09:47:32.725Z,936.87
2023-02-22T09:48:32.537Z,936.91
2023-02-22T09:49:32.553Z,936.91
2023-02-22T09:50:32.567Z,936.92
2023-02-22T09:51:32.589Z,936.93
2023-02-22T09:52:32.605Z,936.94
2023-02-22T09:53:32.613Z,936.91
2023-02-22T09:54:32.626Z,936.92
2023-02-22T09:55:32.770Z,936.91
2023-02-22T09:56:32.660Z,936.92
2023-02-22T09:57:32.687Z,936.90
2023-02-22T09:58:32.689Z,936.91
2023-02-22T09:59:32.711Z,936.90
2023-02-22T10:00:32.726Z,936.88
2023-02-22T10:01:32.797Z,936.88
2023-02-22T10:02:32.749Z,936.86
2023-02-22T10:03:32.797Z,936.89
2023-02-22T10:04:32.789Z,936.86
2023-02-22T10:05:32.823Z,936.90
2023-02-22T10:06:32.810Z,936.92
2023-02-22T10:07:32.830Z,936.96
2023-02-22T10:08:32.839Z,936.96
2023-02-22T10:09:32.861Z,936.98
2023-02-22T10:10:32.876Z,936.95
2023-02-22T10:11:32.924Z,937.01
2023-02-22T10:12:32.909Z,936.98
2023-02-22T10:13:32.928Z,936.98
2023-02-22T10:14:32.930Z,937.02
2023-02-22T10:15:32.952Z,937.03
2023-02-22T10:16:32.982Z,937.03
2023-02-22T10:17:32.982Z,937.07
2023-02-22T10:18:32.998Z,937.05
2023-02-22T10:19:33.012Z,937.02
2023-02-22T10:20:33.028Z,937.06
2023-02-22T10:21:33.044Z,937.05
2023-02-22T10:22:33.058Z,937.05
2023-02-22T10:23:33.073Z,937.04
2023-02-22T10:24:33.088Z,937.04
2023-02-22T10:25:33.096Z,937.07
2023-02-22T10:26:33.109Z,937.11
2023-02-22T10:27:33.185Z,937.08
2023-02-22T10:28:33.159Z,937.09
2023-02-22T10:29:33.184Z,937.09
2023-02-22T10:30:34.362Z,937.11
2023-02-22T10:31:33.326Z,937.12
2023-02-22T10:32:33.220Z,937.13
2023-02-22T10:33:33.225Z,937.16
2023-02-22T10:34:33.236Z,937.14
2023-02-22T10:35:33.256Z,937.19
2023-02-22T10:36:33.273Z,937.16
2023-02-22T10:37:33.299Z,937.20
2023-02-22T10:38:33.304Z,937.18
2023-02-22T10:39:33.365Z,937.18
2023-02-22T10:40:33.344Z,937.18
2023-02-22T10:41:33.339Z,937.17
2023-02-22T10:42:33.355Z,937.21
2023-02-22T10:43:33.433Z,937.19
2023-02-22T10:44:33.386Z,937.23
2023-02-22T10:45:33.450Z,937.23
2023-02-22T10:46:33.417Z,937.21
2023-02-22T10:47:33.443Z,937.22
2023-02-22T10:48:33.455Z,937.19
2023-02-22T10:49:33.461Z,937.25
2023-02-22T10:50:33.498Z,937.25
2023-02-22T10:51:33.500Z,937.25
2023-02-22T10:52:33.509Z,937.30
2023-02-22T10:53:36.126Z,937.33
2023-02-22T10:54:33.564Z,937.35
2023-02-22T10:55:33.781Z,937.34
2023-02-22T10:56:33.576Z,937.32
2023-02-22T10:57:33.584Z,937.36
2023-02-22T10:58:33.605Z,937.30
2023-02-22T10:59:33.686Z,937.35
2023-02-22T11:00:33.636Z,937.33
2023-02-22T11:01:33.738Z,937.36
2023-02-22T11:02:33.665Z,937.33
2023-02-22T11:03:33.780Z,937.37
2023-02-22T11:04:33.694Z,937.40
2023-02-22T11:05:33.710Z,937.40
2023-02-22T11:06:33.730Z,937.39
2023-02-22T11:07:33.739Z,937.40
2023-02-22T11:08:33.756Z,937.48
2023-02-22T11:09:33.770Z,937.44
2023-02-22T11:10:33.783Z,937.43
2023-02-22T11:11:33.798Z,937.47
2023-02-22T11:12:33.811Z,937.43
2023-02-22T11:13:33.822Z,937.44
2023-02-22T11:14:33.843Z,937.48
2023-02-22T11:15:33.868Z,937.49
2023-02-22T11:16:33.906Z,937.48
2023-02-22T11:17:33.881Z,937.49
2023-02-22T11:18:33.897Z,937.51
2023-02-22T11:19:33.918Z,937.46
2023-02-22T11:20:33.933Z,937.47
2023-02-22T11:21:33.952Z,937.49
2023-02-22T11:22:33.965Z,937.46
2023-02-22T11:23:33.970Z,937.47
2023-02-22T11:24:48.406Z,937.48
2023-02-22T11:25:34.004Z,937.52
2023-02-22T11:26:34.023Z,937.52
2023-02-22T11:27:34.048Z,937.54
2023-02-22T11:28:34.054Z,937.55
2023-02-22T11:29:34.069Z,937.58
2023-02-22T11:30:34.192Z,937.55
2023-02-22T11:31:34.152Z,937.53
2023-02-22T11:32:34.120Z,937.54
2023-02-22T11:33:34.138Z,937.53
2023-02-22T11:34:34.135Z,937.51
2023-02-22T11:35:34.161Z,937.52
2023-02-22T11:36:34.165Z,937.52
2023-02-22T11:37:34.183Z,937.52
2023-02-22T11:38:34.194Z,937.57
2023-02-22T11:39:34.334Z,937.52
2023-02-22T11:40:34.825Z,937.51
2023-02-22T11:41:34.237Z,937.50
2023-02-22T11:42:34.279Z,937.49
2023-02-22T11:43:34.271Z,937.51
2023-02-22T11:44:34.283Z,937.51
2023-02-22T11:45:34.537Z,937.47
2023-02-22T11:46:34.352Z,937.52
2023-02-22T11:47:34.359Z,937.51
2023-02-22T11:48:34.343Z,937.49
2023-02-22T11:49:34.364Z,937.54
2023-02-22T11:50:34.376Z,937.51
2023-02-22T11:51:34.398Z,937.56
2023-02-22T11:52:34.412Z,937.56
2023-02-22T11:53:34.420Z,937.55
2023-02-22T11:54:34.434Z,937.59
2023-02-22T11:55:42.799Z,937.61
2023-02-22T11:56:38.070Z,937.61
2023-02-22T11:57:34.478Z,937.64
2023-02-22T11:58:34.492Z,937.64
2023-02-22T11:59:34.523Z,937.62
2023-02-22T12:00:34.529Z,937.63
2023-02-22T12:01:34.538Z,937.62
2023-02-22T12:02:34.557Z,937.62
2023-02-22T12:03:34.619Z,937.60
2023-02-22T12:04:34.702Z,937.62
2023-02-22T12:05:34.606Z,937.60
2023-02-22T12:06:34.621Z,937.64
2023-02-22T12:07:34.636Z,937.62
2023-02-22T12:08:34.651Z,937.62
2023-02-22T12:09:34.668Z,937.59
2023-02-22T12:10:34.673Z,937.63
2023-02-22T12:11:34.688Z,937.61
2023-02-22T12:12:34.704Z,937.60
2023-02-22T12:13:34.726Z,937.58
2023-02-22T12:14:34.739Z,937.56
2023-02-22T12:15:34.830Z,937.58
2023-02-22T12:16:34.787Z,937.55
2023-02-22T12:17:34.790Z,937.56
2023-02-22T12:18:34.801Z,937.54
2023-02-22T12:19:34.854Z,937.54
2023-02-22T12:20:34.828Z,937.60
2023-02-22T12:21:34.844Z,937.61
2023-02-22T12:22:34.879Z,937.59
2023-02-22T12:23:34.877Z,937.64
2023-02-22T12:24:34.892Z,937.65
2023-02-22T12:25:34.900Z,937.65
2023-02-22T12:26:34.915Z,937.66
2023-02-22T12:27:34.929Z,937.66
2023-02-22T12:28:35.002Z,937.67